Time;durP1;ratioP1;P1;durP2;ratioP2;P2;SDS_P1;SDS_P2;PMS_P1;PMS_P2;Temp;Humidity;BMP_temperature;BMP_pressure;BME280_temperature;BME280_humidity;BME280_pressure;Samples;Min_cycle;Max_cycle;Signal;HPM_P1;HPM_P2
2024/01/01 00:00:03;;;;;;;;;3.00;3.00;;;;;13.83;100.00;99993.25;2108360;27;46647;-62
2024/01/01 00:01:04;;;;;;;;;5.67;5.00;;;;;13.84;100.00;99990.50;2108955;27;46528;-61
2024/01/01 00:02:04;;;;;;;;;5.67;4.00;;;;;13.85;100.00;99996.75;2106146;28;46637;-61
2024/01/01 00:03:05;;;;;;;;;3.67;3.67;;;;;13.85;100.00;99996.75;2108597;27;46458;-59
2024/01/01 00:04:05;;;;;;;;;5.00;5.00;;;;;13.84;100.00;100003.00;2108120;27;46736;-61
2024/01/01 00:05:07;;;;;;;;;7.33;5.00;;;;;13.83;100.00;100004.78;2106684;27;46524;-60
2024/01/01 00:06:07;;;;;;;;;6.00;5.00;;;;;13.82;100.00;100005.72;2108511;27;46596;-61
2024/01/01 00:07:07;;;;;;;;;4.00;4.00;;;;;13.81;100.00;100006.66;2106255;27;46343;-63
2024/01/01 00:08:08;;;;;;;;;6.00;6.00;;;;;13.81;100.00;100012.00;2108442;27;46387;-62
2024/01/01 00:09:08;;;;;;;;;3.33;3.33;;;;;13.81;100.00;100004.00;2108070;27;46292;-60
2024/01/01 00:10:08;;;;;;;;;7.00;6.00;;;;;13.79;100.00;100003.22;2105962;28;46776;-62
2024/01/01 00:11:09;;;;;;;;;3.67;3.00;;;;;13.81;100.00;100000.47;2108315;27;46645;-61
2024/01/01 00:12:09;;;;;;;;;7.00;4.00;;;;;13.81;100.00;100001.34;2107359;27;46955;-61
2024/01/01 00:13:10;;;;;;;;;3.67;3.67;;;;;13.81;100.00;100008.47;2097754;28;46290;-62
2024/01/01 00:14:11;;;;;;;;;5.33;3.00;;;;;13.80;100.00;100001.41;2098682;28;46838;-62
2024/01/01 00:15:12;;;;;;;;;6.50;3.00;;;;;13.80;100.00;99999.59;2106539;28;45305;-61
2024/01/01 00:16:14;;;;;;;;;4.33;4.33;;;;;13.81;100.00;100008.47;2081474;28;46770;-60
2024/01/01 00:17:14;;;;;;;;;7.25;4.00;;;;;13.84;100.00;99995.84;2083413;27;46335;-61
2024/01/01 00:18:15;;;;;;;;;5.33;4.00;;;;;13.86;100.00;99997.63;2114849;27;46302;-60
2024/01/01 00:19:15;;;;;;;;;7.00;4.33;;;;;13.86;100.00;99997.63;2109461;27;46250;-62
2024/01/01 00:20:16;;;;;;;;;4.00;4.00;;;;;13.86;100.00;99994.94;2107439;27;45937;-60
2024/01/01 00:21:16;;;;;;;;;10.67;10.00;;;;;13.86;100.00;100000.28;2114180;27;46767;-61
2024/01/01 00:22:16;;;;;;;;;4.33;4.33;;;;;13.87;100.00;100007.34;2087768;28;46421;-62
2024/01/01 00:23:16;;;;;;;;;5.00;5.00;;;;;13.86;100.00;100001.16;2088474;28;46483;-60
2024/01/01 00:24:17;;;;;;;;;6.00;5.00;;;;;13.86;100.00;100005.63;2108694;27;46115;-60
2024/01/01 00:25:17;;;;;;;;;5.00;4.67;;;;;13.85;100.00;100007.41;2108655;27;46590;-61
2024/01/01 00:26:18;;;;;;;;;4.00;4.00;;;;;13.84;100.00;100006.53;2114325;27;46360;-61
2024/01/01 00:27:18;;;;;;;;;5.67;4.33;;;;;13.83;100.00;100012.78;2111147;27;46791;-60
2024/01/01 00:28:18;;;;;;;;;3.67;3.67;;;;;13.81;100.00;100011.13;2107442;27;46421;-60
2024/01/01 00:29:19;;;;;;;;;5.00;5.00;;;;;13.80;100.00;100006.75;2108085;27;47237;-63
2024/01/01 00:30:19;;;;;;;;;3.33;3.00;;;;;13.80;100.00;100007.59;2109394;27;46501;-61
2024/01/01 00:31:20;;;;;;;;;6.00;4.00;;;;;13.80;100.00;100014.75;2106067;28;46425;-62
2024/01/01 00:32:20;;;;;;;;;4.33;4.33;;;;;13.79;100.00;100015.69;2109519;27;46312;-59
2024/01/01 00:33:20;;;;;;;;;4.00;3.67;;;;;13.79;100.00;100019.22;2108563;27;46254;-59
2024/01/01 00:34:21;;;;;;;;;3.33;2.00;;;;;13.77;100.00;100012.22;2106346;27;45759;-62
2024/01/01 00:35:22;;;;;;;;;3.50;3.50;;;;;13.76;100.00;100018.50;2108906;27;46345;-61
2024/01/01 00:36:22;;;;;;;;;5.00;3.00;;;;;13.76;100.00;100018.50;2106683;27;46666;-60
2024/01/01 00:37:22;;;;;;;;;6.33;4.00;;;;;13.75;100.00;100006.97;2109202;27;46825;-61
2024/01/01 00:38:23;;;;;;;;;2.33;2.33;;;;;13.75;100.00;100009.63;2107271;27;46295;-62
2024/01/01 00:39:23;;;;;;;;;3.33;3.33;;;;;13.75;100.00;100011.44;2105894;28;45965;-61
2024/01/01 00:40:25;;;;;;;;;4.75;4.75;;;;;13.74;100.00;100013.25;2107297;27;46357;-60
2024/01/01 00:41:25;;;;;;;;;3.75;3.75;;;;;13.74;100.00;100012.38;2107372;27;46914;-61
2024/01/01 00:42:26;;;;;;;;;5.67;4.00;;;;;13.75;100.00;100014.09;2106057;28;46641;-61
2024/01/01 00:43:26;;;;;;;;;5.00;2.67;;;;;13.74;100.00;100004.38;2107735;27;45453;-60
2024/01/01 00:44:27;;;;;;;;;4.00;4.00;;;;;13.74;100.00;100017.72;2107594;27;46911;-62
2024/01/01 00:45:27;;;;;;;;;4.00;3.00;;;;;13.73;100.00;100015.97;2098365;28;45715;-61
2024/01/01 00:46:27;;;;;;;;;4.00;3.00;;;;;13.72;100.00;100007.13;2106922;27;46485;-61
2024/01/01 00:47:28;;;;;;;;;3.33;3.33;;;;;13.72;100.00;100015.13;2105675;28;46998;-61
2024/01/01 00:48:28;;;;;;;;;5.33;3.00;;;;;13.74;100.00;100004.38;2098007;28;46547;-61
2024/01/01 00:49:28;;;;;;;;;6.00;3.00;;;;;13.73;100.00;100002.66;2098870;28;46877;-60
2024/01/01 00:50:29;;;;;;;;;6.00;5.00;;;;;13.72;100.00;100012.44;2114400;27;46506;-61
2024/01/01 00:51:29;;;;;;;;;3.00;3.00;;;;;13.71;100.00;100008.03;2110193;27;46218;-59
2024/01/01 00:52:29;;;;;;;;;4.00;3.00;;;;;13.72;100.00;100011.56;2106757;27;46310;-59
2024/01/01 00:53:30;;;;;;;;;7.33;4.33;;;;;13.70;100.00;100011.63;2106847;27;46477;-62
2024/01/01 00:54:30;;;;;;;;;5.67;3.67;;;;;13.70;100.00;100011.63;2107917;27;46689;-61
2024/01/01 00:55:31;;;;;;;;;3.00;3.00;;;;;13.70;100.00;100003.63;2106197;28;46514;-61
2024/01/01 00:56:32;;;;;;;;;4.75;3.25;;;;;13.69;100.00;100004.56;2107738;27;46611;-60
2024/01/01 00:57:32;;;;;;;;;5.33;4.00;;;;;13.69;100.00;100012.56;2107752;27;46730;-60
2024/01/01 00:58:32;;;;;;;;;2.33;2.00;;;;;13.69;100.00;100015.22;2106058;28;46492;-61
2024/01/01 00:59:33;;;;;;;;;2.67;2.67;;;;;13.70;100.00;100008.09;2107557;27;46204;-61
2024/01/01 01:00:33;;;;;;;;;4.00;4.00;;;;;13.70;100.00;100008.97;2106040;27;47100;-61
2024/01/01 01:01:34;;;;;;;;;4.00;4.00;;;;;13.70;100.00;100006.28;2107433;27;46788;-59
2024/01/01 01:02:34;;;;;;;;;6.33;2.67;;;;;13.71;100.00;100002.69;2107481;27;46388;-61
2024/01/01 01:03:35;;;;;;;;;3.67;2.67;;;;;13.72;100.00;100003.56;2105723;28;46341;-61
2024/01/01 01:04:36;;;;;;;;;3.50;2.25;;;;;13.72;100.00;100003.56;2107601;27;45760;-61
2024/01/01 01:05:36;;;;;;;;;5.00;3.00;;;;;13.71;100.00;100000.03;2106582;27;46285;-62
2024/01/01 01:06:36;;;;;;;;;4.67;3.00;;;;;13.70;100.00;100006.28;2105515;28;46816;-61
2024/01/01 01:07:37;;;;;;;;;2.33;2.00;;;;;13.69;100.00;100001.91;2107234;27;46473;-61
2024/01/01 01:08:37;;;;;;;;;4.67;4.00;;;;;13.71;100.00;100007.16;2106106;28;46443;-61
2024/01/01 01:09:37;;;;;;;;;3.00;3.00;;;;;13.70;100.00;100002.75;2107163;27;46640;-62
2024/01/01 01:10:38;;;;;;;;;4.33;3.33;;;;;13.69;100.00;100007.22;2106811;27;46756;-61
2024/01/01 01:11:40;;;;;;;;;3.00;3.00;;;;;13.68;100.00;100005.50;2105894;28;46449;-60
2024/01/01 01:12:40;;;;;;;;;4.50;4.50;;;;;13.68;100.00;100005.50;2107241;27;46316;-60
2024/01/01 01:13:40;;;;;;;;;5.33;4.00;;;;;13.67;100.00;100005.56;2106520;27;46460;-62
2024/01/01 01:14:41;;;;;;;;;5.00;4.67;;;;;13.68;100.00;100007.31;2107197;27;46025;-60
2024/01/01 01:15:41;;;;;;;;;4.00;4.00;;;;;13.67;100.00;100009.09;2108028;27;46927;-60
2024/01/01 01:16:41;;;;;;;;;3.33;3.00;;;;;13.69;100.00;100003.69;2105799;28;46603;-60
2024/01/01 01:17:42;;;;;;;;;4.33;3.33;;;;;13.68;100.00;99997.50;2107799;27;46436;-61
2024/01/01 01:18:42;;;;;;;;;7.00;4.00;;;;;13.70;100.00;100005.44;2107699;27;46086;-61
2024/01/01 01:19:42;;;;;;;;;4.33;4.33;;;;;13.70;100.00;100010.75;2105849;28;46395;-59
2024/01/01 01:20:43;;;;;;;;;4.67;4.33;;;;;13.68;100.00;100017.97;2109948;27;46189;-61
2024/01/01 01:21:43;;;;;;;;;3.67;3.67;;;;;13.67;100.00;100011.78;2113836;27;46543;-60
2024/01/01 01:22:43;;;;;;;;;7.33;5.00;;;;;13.67;100.00;100006.44;2108104;27;46634;-61
2024/01/01 01:23:44;;;;;;;;;4.33;4.33;;;;;13.68;100.00;100000.16;2108148;27;46828;-61
2024/01/01 01:24:44;;;;;;;;;6.00;4.67;;;;;13.68;100.00;100001.97;2105625;28;46538;-61
2024/01/01 01:25:44;;;;;;;;;5.00;2.33;;;;;13.66;100.00;100002.03;2108993;27;46535;-61
2024/01/01 01:26:45;;;;;;;;;3.00;3.00;;;;;13.67;100.00;100002.91;2096751;28;46638;-61
2024/01/01 01:27:45;;;;;;;;;4.67;4.00;;;;;13.68;100.00;100001.97;2103644;28;46543;-61
2024/01/01 01:28:46;;;;;;;;;5.00;4.00;;;;;13.66;100.00;100003.84;2112086;27;46441;-61
2024/01/01 01:29:46;;;;;;;;;5.00;2.00;;;;;13.67;100.00;99997.56;2105508;28;46621;-61
2024/01/01 01:30:46;;;;;;;;;1.33;1.00;;;;;13.65;100.00;99997.66;2102258;28;46352;-63
2024/01/01 01:31:47;;;;;;;;;3.33;3.33;;;;;13.65;100.00;100005.66;2108844;27;45853;-60
2024/01/01 01:32:47;;;;;;;;;2.67;2.67;;;;;13.65;100.00;100002.97;2105821;28;45250;-61
2024/01/01 01:33:47;;;;;;;;;4.00;2.67;;;;;13.66;100.00;99998.50;2109094;27;46625;-60
2024/01/01 01:34:48;;;;;;;;;5.00;2.33;;;;;13.62;100.00;100013.78;2107223;27;46467;-61
2024/01/01 01:35:48;;;;;;;;;5.00;4.00;;;;;13.60;100.00;100010.34;2107488;27;46304;-60
2024/01/01 01:36:48;;;;;;;;;5.00;5.00;;;;;13.60;100.00;100012.13;2109003;27;46472;-60
2024/01/01 01:37:49;;;;;;;;;4.00;4.00;;;;;13.60;100.00;100014.81;2105637;28;46402;-61
2024/01/01 01:38:49;;;;;;;;;3.00;3.00;;;;;13.64;100.00;100013.72;2106925;27;46693;-61
2024/01/01 01:39:49;;;;;;;;;3.67;3.00;;;;;13.63;100.00;100018.19;2106661;27;46625;-59
2024/01/01 01:40:50;;;;;;;;;4.33;3.00;;;;;13.58;100.00;100016.66;2096598;28;46631;-62
2024/01/01 01:41:50;;;;;;;;;4.67;4.67;;;;;13.57;100.00;100022.91;2097471;28;46101;-61
2024/01/01 01:42:50;;;;;;;;;5.33;4.00;;;;;13.60;100.00;100020.13;2106356;27;46590;-61
2024/01/01 01:43:51;;;;;;;;;3.67;1.33;;;;;13.60;100.00;100023.66;2113713;27;46298;-61
2024/01/01 01:44:51;;;;;;;;;3.00;3.00;;;;;13.61;100.00;100025.41;2102615;28;46462;-60
2024/01/01 01:45:52;;;;;;;;;7.33;4.67;;;;;13.62;100.00;100013.78;2096419;28;46674;-62
2024/01/01 01:46:53;;;;;;;;;3.25;3.00;;;;;13.62;100.00;100013.78;2107498;27;46376;-62
2024/01/01 01:47:53;;;;;;;;;5.33;4.00;;;;;13.64;100.00;100022.59;2107764;27;46479;-61
2024/01/01 01:48:54;;;;;;;;;6.33;5.00;;;;;13.65;100.00;100028.78;2105455;27;45679;-61
2024/01/01 01:49:55;;;;;;;;;2.33;2.33;;;;;13.65;100.00;100020.78;2108700;27;46484;-61
2024/01/01 01:50:55;;;;;;;;;7.00;3.50;;;;;13.65;100.00;100028.78;2113830;27;46315;-60
2024/01/01 01:51:58;;;;;;;;;5.67;4.00;;;;;13.63;100.00;100034.19;2107200;27;46646;-60
2024/01/01 01:52:58;;;;;;;;;3.00;3.00;;;;;13.63;100.00;100030.66;2108222;27;46347;-61
2024/01/01 01:53:59;;;;;;;;;3.33;2.33;;;;;13.64;100.00;100032.38;2105387;28;46668;-61
2024/01/01 01:55:00;;;;;;;;;3.00;3.00;;;;;13.65;100.00;100024.31;2113216;27;46305;-60
2024/01/01 01:56:04;;;;;;;;;2.00;2.00;;;;;13.64;100.00;100029.72;2113379;27;46553;-61
2024/01/01 01:57:06;;;;;;;;;3.75;3.75;;;;;13.63;100.00;100034.19;2097181;28;46145;-61
2024/01/01 01:58:07;;;;;;;;;4.75;3.00;;;;;13.63;100.00;100038.66;2106926;27;46369;-61
2024/01/01 01:59:07;;;;;;;;;4.00;4.00;;;;;13.62;100.00;100044.94;2106300;27;46236;-61
2024/01/01 02:00:09;;;;;;;;;2.00;2.00;;;;;13.62;100.00;100032.47;2107526;27;46705;-61
2024/01/01 02:01:12;;;;;;;;;4.50;4.00;;;;;13.62;100.00;100042.25;2108779;27;46709;-61
2024/01/01 02:02:13;;;;;;;;;7.25;3.50;;;;;13.63;100.00;100033.31;2105625;27;46809;-60
2024/01/01 02:03:13;;;;;;;;;7.67;3.00;;;;;13.62;100.00;100035.13;2108583;27;46882;-63
2024/01/01 02:04:14;;;;;;;;;3.00;2.67;;;;;13.63;100.00;100046.66;2082246;28;45521;-59
2024/01/01 02:05:14;;;;;;;;;2.33;2.33;;;;;13.62;100.00;100045.78;2086936;28;46207;-62
2024/01/01 02:06:14;;;;;;;;;0.00;0.00;;;;;13.62;100.00;100042.25;2111274;27;46624;-60
2024/01/01 02:07:15;;;;;;;;;3.33;2.00;;;;;13.61;100.00;100052.06;2106592;27;46913;-59
2024/01/01 02:08:15;;;;;;;;;2.00;2.00;;;;;13.60;100.00;100044.13;2089737;28;46611;-59
2024/01/01 02:09:16;;;;;;;;;4.67;4.67;;;;;13.57;100.00;100037.13;2090854;28;46249;-61
2024/01/01 02:10:16;;;;;;;;;7.00;4.00;;;;;13.57;100.00;100036.25;2105574;28;46807;-61
2024/01/01 02:11:17;;;;;;;;;4.67;3.33;;;;;13.55;100.00;100042.50;2108733;27;46630;-61
2024/01/01 02:12:17;;;;;;;;;4.00;3.00;;;;;13.57;100.00;100045.09;2107885;27;46651;-59
2024/01/01 02:13:28;;;;;;;;;3.00;2.33;;;;;13.58;100.00;100045.97;2106126;27;47166;-60
2024/01/01 02:14:29;;;;;;;;;4.75;4.00;;;;;13.56;100.00;100040.72;2108721;27;46096;-60
2024/01/01 02:15:29;;;;;;;;;3.33;1.33;;;;;13.75;100.00;100046.09;2098708;28;45545;-60
2024/01/01 02:16:29;;;;;;;;;3.67;2.00;;;;;13.64;100.00;100048.38;2097317;28;46323;-61
2024/01/01 02:17:30;;;;;;;;;2.33;2.33;;;;;13.58;100.00;100049.50;2108637;27;45927;-59
2024/01/01 02:18:31;;;;;;;;;4.00;4.00;;;;;13.57;100.00;100050.44;2105517;27;46831;-60
2024/01/01 02:19:31;;;;;;;;;3.25;2.75;;;;;13.55;100.00;100044.31;2107934;27;46489;-61
2024/01/01 02:20:32;;;;;;;;;4.33;3.00;;;;;13.54;100.00;100047.91;2108657;27;46710;-59
2024/01/01 02:21:32;;;;;;;;;3.00;3.00;;;;;13.53;100.00;100057.72;2105302;28;46146;-60
2024/01/01 02:22:39;;;;;;;;;7.00;6.00;;;;;13.53;100.00;100055.06;2099801;28;46106;-60
2024/01/01 02:23:39;;;;;;;;;3.75;3.75;;;;;13.52;100.00;100064.00;2099214;28;46486;-60
2024/01/01 02:24:40;;;;;;;;;5.00;4.00;;;;;13.49;100.00;100058.81;2096354;28;46764;-60
2024/01/01 02:25:40;;;;;;;;;3.33;2.33;;;;;13.50;100.00;100057.00;2108692;27;46591;-60
2024/01/01 02:26:41;;;;;;;;;3.67;3.00;;;;;13.50;100.00;100059.66;2106902;27;46532;-61
2024/01/01 02:27:41;;;;;;;;;4.33;3.00;;;;;13.50;100.00;100060.53;2107322;27;46867;-61
2024/01/01 02:28:41;;;;;;;;;3.33;3.00;;;;;13.50;100.00;100065.84;2108281;27;46672;-62
2024/01/01 02:29:42;;;;;;;;;6.00;3.00;;;;;13.47;100.00;100068.66;2105266;28;46828;-62
2024/01/01 02:30:42;;;;;;;;;4.33;4.00;;;;;13.44;100.00;100067.91;2109744;27;46275;-59
2024/01/01 02:31:44;;;;;;;;;5.67;4.00;;;;;13.43;100.00;100066.19;2108105;27;46480;-60
2024/01/01 02:32:45;;;;;;;;;7.50;2.75;;;;;13.42;100.00;100061.78;2106427;27;46587;-60
2024/01/01 02:33:45;;;;;;;;;1.00;1.00;;;;;13.48;100.00;100073.06;2109000;27;46187;-60
2024/01/01 02:34:47;;;;;;;;;3.33;3.33;;;;;13.49;100.00;100060.59;2106762;27;46146;-61
2024/01/01 02:35:48;;;;;;;;;41.60;34.40;;;;;13.46;100.00;100060.72;2108596;27;46980;-60
2024/01/01 02:36:48;;;;;;;;;17.67;17.67;;;;;13.47;100.00;100062.47;2110391;27;46446;-61
2024/01/01 02:37:48;;;;;;;;;9.00;9.00;;;;;13.45;100.00;100059.84;2105104;27;46214;-62
2024/01/01 02:38:49;;;;;;;;;16.00;11.33;;;;;13.50;100.00;100071.19;2103343;28;46853;-61
2024/01/01 02:39:49;;;;;;;;;11.33;10.33;;;;;13.50;100.00;100070.31;2106648;27;46740;-60
2024/01/01 02:40:49;;;;;;;;;12.33;10.00;;;;;13.47;100.00;100070.47;2105166;28;46753;-61
2024/01/01 02:41:49;;;;;;;;;5.67;4.00;;;;;13.53;100.00;100070.19;2110343;27;46015;-60
2024/01/01 02:42:50;;;;;;;;;8.67;7.67;;;;;13.51;100.00;100069.38;2113668;27;46216;-60
2024/01/01 02:43:50;;;;;;;;;13.00;13.00;;;;;13.76;100.00;100066.50;2088353;28;46155;-62
2024/01/01 02:44:50;;;;;;;;;9.33;7.00;;;;;13.64;100.00;100072.38;2089649;28;46208;-61
2024/01/01 02:45:51;;;;;;;;;9.33;6.00;;;;;13.50;100.00;100065.84;2105147;28;46488;-59
2024/01/01 02:46:51;;;;;;;;;4.67;4.00;;;;;13.53;100.00;100072.84;2083920;28;46287;-59
2024/01/01 02:47:53;;;;;;;;;5.33;4.00;;;;;13.48;100.00;100066.88;2076818;28;46237;-61
2024/01/01 02:48:53;;;;;;;;;6.25;5.50;;;;;13.47;100.00;100076.66;2104689;27;46851;-61
2024/01/01 02:49:53;;;;;;;;;4.67;4.00;;;;;13.47;100.00;100070.47;2109396;27;46683;-61
2024/01/01 02:50:54;;;;;;;;;8.00;2.67;;;;;13.47;100.00;100073.13;2106028;27;46754;-61
2024/01/01 02:51:54;;;;;;;;;7.00;5.00;;;;;13.79;100.00;100069.88;2097538;28;46648;-60
2024/01/01 02:52:55;;;;;;;;;5.00;4.00;;;;;13.85;100.00;100076.75;2098569;28;46900;-61
2024/01/01 02:53:56;;;;;;;;;6.00;5.00;;;;;13.90;100.00;100071.19;2105029;27;46704;-60
2024/01/01 02:54:56;;;;;;;;;6.25;4.00;;;;;13.92;100.00;100074.66;2105302;28;46558;-61
2024/01/01 02:55:56;;;;;;;;;7.00;3.00;;;;;13.68;100.00;100076.63;2107369;27;46780;-59
2024/01/01 02:56:57;;;;;;;;;5.00;2.00;;;;;13.57;100.00;100081.56;2104949;28;46668;-61
2024/01/01 02:57:57;;;;;;;;;5.67;4.00;;;;;13.52;100.00;100082.66;2108519;27;46602;-61
2024/01/01 02:58:57;;;;;;;;;3.33;3.00;;;;;13.50;100.00;100081.84;2113368;27;46608;-60
2024/01/01 02:59:58;;;;;;;;;5.00;4.00;;;;;13.48;100.00;100088.19;2113676;27;46412;-61
2024/01/01 03:00:58;;;;;;;;;4.67;4.67;;;;;13.76;100.00;100080.69;2111984;27;46797;-60
2024/01/01 03:01:58;;;;;;;;;8.00;7.67;;;;;13.76;100.00;100085.16;2113793;27;46653;-61
2024/01/01 03:02:59;;;;;;;;;4.00;4.00;;;;;13.82;100.00;100087.53;2099884;28;46282;-61
2024/01/01 03:03:59;;;;;;;;;1.33;0.33;;;;;13.60;100.00;100093.00;2098090;28;46754;-60
2024/01/01 03:04:59;;;;;;;;;3.33;3.33;;;;;13.51;100.00;100091.59;2105631;27;46529;-61
2024/01/01 03:06:00;;;;;;;;;2.33;2.00;;;;;13.47;100.00;100089.13;2109096;27;46248;-60
2024/01/01 03:07:00;;;;;;;;;3.33;3.33;;;;;13.47;100.00;100095.31;2095321;28;46190;-59
2024/01/01 03:08:00;;;;;;;;;5.67;3.67;;;;;13.46;100.00;100090.91;2090056;28;46429;-59
2024/01/01 03:09:01;;;;;;;;;3.00;3.00;;;;;13.45;100.00;100089.16;2107005;27;46826;-60
2024/01/01 03:10:02;;;;;;;;;3.00;3.00;;;;;13.44;100.00;100094.56;2097091;28;45589;-61
2024/01/01 03:11:05;;;;;;;;;2.00;1.00;;;;;13.43;100.00;100091.03;2099776;28;46594;-60
2024/01/01 03:12:06;;;;;;;;;5.75;4.00;;;;;13.42;100.00;100089.31;2107391;27;46614;-60
2024/01/01 03:13:06;;;;;;;;;5.00;3.67;;;;;13.42;100.00;100091.09;2089566;28;46353;-61
2024/01/01 03:14:07;;;;;;;;;6.00;4.00;;;;;13.42;100.00;100096.44;2090860;28;45341;-61
2024/01/01 03:15:08;;;;;;;;;8.00;3.67;;;;;13.43;100.00;100098.16;2106613;28;46294;-61
2024/01/01 03:16:08;;;;;;;;;2.00;2.00;;;;;13.43;100.00;100090.16;2108802;27;46436;-61
2024/01/01 03:17:09;;;;;;;;;4.00;4.00;;;;;13.43;100.00;100093.69;2108643;27;46265;-61
2024/01/01 03:18:11;;;;;;;;;5.33;4.33;;;;;13.43;100.00;100087.50;2106983;28;45817;-61
2024/01/01 03:19:11;;;;;;;;;4.00;3.00;;;;;13.44;100.00;100099.91;2108495;27;46248;-62
2024/01/01 03:20:12;;;;;;;;;3.00;3.00;;;;;13.45;100.00;100096.28;2098617;28;46569;-61
2024/01/01 03:21:12;;;;;;;;;5.33;5.33;;;;;13.45;100.00;100101.63;2098820;28;46687;-61
2024/01/01 03:22:12;;;;;;;;;4.33;4.00;;;;;13.45;100.00;100094.50;2108278;27;46397;-62
2024/01/01 03:23:13;;;;;;;;;5.67;5.67;;;;;13.44;100.00;100103.44;2106537;28;47545;-61
2024/01/01 03:24:13;;;;;;;;;4.00;2.00;;;;;13.44;100.00;100103.44;2112804;27;46582;-60
2024/01/01 03:25:13;;;;;;;;;2.00;2.00;;;;;13.41;100.00;100106.22;2114767;27;46262;-60
2024/01/01 03:26:14;;;;;;;;;2.33;2.00;;;;;13.42;100.00;100107.97;2106961;27;45498;-60
2024/01/01 03:27:15;;;;;;;;;4.00;2.00;;;;;13.44;100.00;100106.09;2110066;27;45569;-61
2024/01/01 03:28:16;;;;;;;;;2.33;2.33;;;;;13.76;100.00;100106.50;2107219;27;46429;-60
2024/01/01 03:29:16;;;;;;;;;2.67;2.67;;;;;13.83;100.00;100105.28;2109221;27;45752;-61
2024/01/01 03:30:18;;;;;;;;;3.00;2.00;;;;;13.81;100.00;100109.81;2110417;27;46382;-61
2024/01/01 03:31:18;;;;;;;;;3.50;2.50;;;;;13.81;100.00;100107.16;2106343;28;46341;-62
2024/01/01 03:32:19;;;;;;;;;5.33;3.00;;;;;13.75;100.00;100118.97;2110686;27;46293;-60
2024/01/01 03:33:19;;;;;;;;;1.33;1.33;;;;;13.73;100.00;100112.84;2108940;27;46172;-59
2024/01/01 03:34:19;;;;;;;;;3.67;1.67;;;;;13.82;100.00;100112.41;2108127;27;46235;-60
2024/01/01 03:35:20;;;;;;;;;3.00;2.00;;;;;13.77;100.00;100110.91;2110803;27;46863;-59
2024/01/01 03:36:20;;;;;;;;;2.00;2.00;;;;;13.76;100.00;100099.38;2107083;27;46628;-62
2024/01/01 03:37:21;;;;;;;;;5.33;3.33;;;;;13.74;100.00;100109.25;2110188;27;46482;-61
2024/01/01 03:38:21;;;;;;;;;4.33;1.33;;;;;13.75;100.00;100110.97;2107436;27;46222;-60
2024/01/01 03:39:21;;;;;;;;;2.00;2.00;;;;;13.74;100.00;100119.03;2106454;28;46655;-60
2024/01/01 03:40:22;;;;;;;;;2.00;2.00;;;;;13.74;100.00;100117.25;2107661;27;46676;-62
2024/01/01 03:41:26;;;;;;;;;3.33;2.33;;;;;13.75;100.00;100108.31;2107709;27;46090;-61
2024/01/01 03:42:26;;;;;;;;;5.50;2.00;;;;;13.83;100.00;100110.59;2079857;28;46792;-61
2024/01/01 03:43:26;;;;;;;;;2.33;2.33;;;;;13.86;100.00;100117.63;2080116;28;46255;-61
2024/01/01 03:44:27;;;;;;;;;2.67;2.00;;;;;13.73;100.00;100126.19;2096704;28;46817;-60
2024/01/01 03:45:27;;;;;;;;;5.00;3.67;;;;;13.64;100.00;100117.69;2106181;28;46327;-59
2024/01/01 03:46:28;;;;;;;;;2.33;2.00;;;;;13.61;100.00;100112.50;2109532;27;46815;-61
2024/01/01 03:47:28;;;;;;;;;2.33;2.00;;;;;13.73;100.00;100118.19;2106216;28;46572;-60
2024/01/01 03:48:29;;;;;;;;;3.00;2.00;;;;;13.60;100.00;100124.13;2110736;27;46151;-59
2024/01/01 03:49:29;;;;;;;;;2.67;2.00;;;;;13.71;100.00;100124.47;2114592;27;46387;-61
2024/01/01 03:50:29;;;;;;;;;3.33;1.67;;;;;13.73;100.00;100126.19;2106891;27;46065;-62
2024/01/01 03:51:30;;;;;;;;;3.67;1.67;;;;;13.71;100.00;100127.16;2109041;27;46916;-61
2024/01/01 03:52:30;;;;;;;;;4.00;3.00;;;;;13.75;100.00;100132.31;2106533;27;46765;-61
2024/01/01 03:53:30;;;;;;;;;3.00;2.00;;;;;13.73;100.00;100123.50;2108453;27;46584;-62
2024/01/01 03:54:31;;;;;;;;;3.00;3.00;;;;;13.81;100.00;100126.69;2105888;28;46762;-62
2024/01/01 03:55:31;;;;;;;;;3.00;2.00;;;;;13.65;100.00;100122.97;2106682;28;46751;-61
2024/01/01 03:56:32;;;;;;;;;3.00;2.00;;;;;13.69;100.00;100134.34;2100679;28;45443;-59
2024/01/01 03:57:33;;;;;;;;;1.00;1.00;;;;;13.68;100.00;100141.50;2099210;28;46780;-60
2024/01/01 03:58:33;;;;;;;;;3.75;3.25;;;;;13.72;100.00;100136.88;2106924;27;46535;-61
2024/01/01 03:59:33;;;;;;;;;2.00;1.00;;;;;13.62;100.00;100133.78;2108852;27;46083;-60
2024/01/01 04:00:33;;;;;;;;;2.67;2.67;;;;;13.64;100.00;100139.03;2106246;28;46392;-61
2024/01/01 04:01:35;;;;;;;;;2.00;1.33;;;;;13.67;100.00;100125.56;2106229;28;46647;-61
2024/01/01 04:02:35;;;;;;;;;3.25;1.50;;;;;13.57;100.00;100140.22;2108740;27;46990;-60
2024/01/01 04:03:35;;;;;;;;;5.00;3.33;;;;;13.57;100.00;100137.56;2106255;28;46271;-61
2024/01/01 04:04:37;;;;;;;;;3.33;3.33;;;;;13.50;100.00;100131.63;2108751;27;45199;-61
2024/01/01 04:05:37;;;;;;;;;2.75;1.00;;;;;13.38;100.00;100127.69;2108075;27;46489;-60
2024/01/01 04:06:37;;;;;;;;;4.00;3.00;;;;;13.35;100.00;100134.97;2106102;27;46480;-59
2024/01/01 04:07:38;;;;;;;;;2.00;2.00;;;;;13.44;100.00;100137.22;2108042;27;46599;-59
2024/01/01 04:08:38;;;;;;;;;1.67;1.00;;;;;13.31;100.00;100128.88;2097342;28;46092;-60
2024/01/01 04:09:38;;;;;;;;;4.00;3.00;;;;;13.46;100.00;100130.00;2089623;28;46199;-60
2024/01/01 04:10:39;;;;;;;;;4.33;3.00;;;;;13.29;100.00;100132.53;2090004;28;46769;-61
2024/01/01 04:11:39;;;;;;;;;2.00;2.00;;;;;13.22;100.00;100132.81;2097068;28;46732;-61
2024/01/01 04:12:39;;;;;;;;;2.00;2.00;;;;;13.24;100.00;100138.06;2087740;28;47465;-60
2024/01/01 04:13:40;;;;;;;;;3.33;2.00;;;;;13.58;100.00;100132.16;2088037;28;46453;-61
2024/01/01 04:14:40;;;;;;;;;2.00;2.00;;;;;13.67;100.00;100131.75;2106407;28;46712;-59
2024/01/01 04:15:41;;;;;;;;;1.00;1.00;;;;;13.65;100.00;100144.28;2106640;27;46408;-59
2024/01/01 04:16:41;;;;;;;;;4.00;2.00;;;;;13.63;100.00;100139.97;2114758;27;46294;-62
2024/01/01 04:17:41;;;;;;;;;2.33;2.33;;;;;13.30;100.00;100147.59;2108786;27;46470;-59
2024/01/01 04:18:41;;;;;;;;;2.00;1.00;;;;;13.25;100.00;100142.47;2107108;27;46694;-61
2024/01/01 04:19:47;;;;;;;;;2.00;2.00;;;;;13.20;100.00;100147.09;2106082;28;46835;-60
2024/01/01 04:20:47;;;;;;;;;2.75;2.00;;;;;13.19;100.00;100148.91;2107147;27;46746;-59
2024/01/01 04:21:48;;;;;;;;;1.00;1.00;;;;;13.18;100.00;100141.84;2105882;27;46824;-59
2024/01/01 04:22:51;;;;;;;;;2.75;2.25;;;;;13.16;100.00;100142.81;2113922;27;46554;-60
2024/01/01 04:23:54;;;;;;;;;1.00;1.00;;;;;13.15;100.00;100152.59;2112223;27;45531;-60
2024/01/01 04:24:54;;;;;;;;;1.25;1.00;;;;;13.33;100.00;100155.44;2106115;28;46497;-61
2024/01/01 04:25:54;;;;;;;;;1.00;1.00;;;;;13.15;100.00;100152.59;2108158;27;46924;-61
2024/01/01 04:26:55;;;;;;;;;2.67;0.33;;;;;13.31;100.00;100155.53;2107690;27;46564;-62
2024/01/01 04:27:55;;;;;;;;;1.00;1.00;;;;;13.18;100.00;100151.59;2105995;28;46608;-61
2024/01/01 04:28:55;;;;;;;;;2.67;2.00;;;;;13.15;100.00;100149.06;2098972;28;46237;-59
2024/01/01 04:29:55;;;;;;;;;1.33;1.33;;;;;13.15;100.00;100157.94;2097948;28;46327;-61
2024/01/01 04:30:56;;;;;;;;;2.00;1.00;;;;;13.14;100.00;100152.66;2106793;27;46599;-62
2024/01/01 04:31:56;;;;;;;;;1.00;1.00;;;;;13.14;100.00;100153.53;2107944;27;45386;-60
2024/01/01 04:32:56;;;;;;;;;2.67;1.00;;;;;13.13;100.00;100158.94;2106191;28;46282;-61
2024/01/01 04:33:57;;;;;;;;;1.00;1.00;;;;;13.13;100.00;100158.94;2105676;27;46340;-61
2024/01/01 04:34:57;;;;;;;;;2.67;1.00;;;;;13.21;100.00;100160.38;2108033;27;46624;-60
2024/01/01 04:35:57;;;;;;;;;1.67;1.00;;;;;13.37;100.00;100165.06;2106052;28;46172;-59
2024/01/01 04:36:58;;;;;;;;;4.00;1.00;;;;;13.43;100.00;100163.00;2107547;27;46259;-60
2024/01/01 04:37:58;;;;;;;;;0.67;0.67;;;;;13.40;100.00;100159.59;2106213;27;46414;-61